Time;durP1;ratioP1;P1;durP2;ratioP2;P2;SDS_P1;SDS_P2;PMS_P1;PMS_P2;Temp;Humidity;BMP_temperature;BMP_pressure;BME280_temperature;BME280_humidity;BME280_pressure;Samples;Min_cycle;Max_cycle;Signal;HPM_P1;HPM_P2
2023/03/29 00:00:13;;;;;;;7.43;1.90;;;7.20;90.10;;;;;;4998004;28;20454;-79
2023/03/29 00:02:39;;;;;;;5.33;1.90;;;7.20;90.10;;;;;;4997784;28;20073;-79
2023/03/29 00:05:06;;;;;;;4.30;1.10;;;7.20;90.10;;;;;;4997794;28;20517;-78
2023/03/29 00:07:32;;;;;;;4.70;1.97;;;7.20;90.10;;;;;;5015419;28;20037;-79
2023/03/29 00:09:59;;;;;;;8.17;1.87;;;7.20;90.20;;;;;;5017690;28;20116;-78
2023/03/29 00:12:25;;;;;;;7.23;2.10;;;7.20;90.20;;;;;;5017389;28;20033;-79
2023/03/29 00:14:50;;;;;;;5.13;1.93;;;7.20;90.30;;;;;;5017215;28;20021;-78
2023/03/29 00:17:16;;;;;;;8.97;2.53;;;7.20;90.30;;;;;;5017088;28;20087;-79
2023/03/29 00:19:43;;;;;;;5.07;2.00;;;7.20;90.30;;;;;;5013526;28;20117;-78
2023/03/29 00:22:09;;;;;;;6.83;2.43;;;7.20;90.20;;;;;;5004235;28;20018;-79
2023/03/29 00:24:35;;;;;;;6.40;1.90;;;7.20;90.40;;;;;;5033415;28;20017;-78
2023/03/29 00:27:00;;;;;;;4.10;1.60;;;7.20;90.30;;;;;;5016762;28;20039;-79
2023/03/29 00:29:26;;;;;;;7.20;1.90;;;7.20;90.30;;;;;;5017062;28;20025;-79
2023/03/29 00:31:55;;;;;;;5.97;2.03;;;7.20;90.40;;;;;;5016756;28;20503;-79
2023/03/29 00:34:22;;;;;;;5.33;2.10;;;7.20;90.30;;;;;;5013075;28;20088;-79
2023/03/29 00:36:51;;;;;;;5.10;1.83;;;7.20;90.40;;;;;;4996904;28;20509;-79
2023/03/29 00:39:19;;;;;;;3.63;1.57;;;7.20;90.40;;;;;;5013404;28;20109;-79
2023/03/29 00:41:49;;;;;;;4.43;1.70;;;7.20;90.30;;;;;;4997024;28;20549;-79
2023/03/29 00:44:53;;;;;;;4.10;1.60;;;7.20;90.30;;;;;;4996928;28;20052;-79
2023/03/29 00:47:44;;;;;;;4.97;1.70;;;7.30;90.30;;;;;;5017621;28;20501;-79
2023/03/29 00:50:24;;;;;;;5.17;2.07;;;7.30;90.30;;;;;;5016351;28;20488;-79
2023/03/29 00:53:03;;;;;;;5.40;1.93;;;7.30;90.30;;;;;;5034161;28;20033;-79
2023/03/29 00:55:35;;;;;;;4.90;1.97;;;7.30;90.30;;;;;;5016108;28;20083;-79
2023/03/29 00:58:03;;;;;;;9.77;2.17;;;7.30;90.30;;;;;;5016336;28;20112;-78
2023/03/29 01:00:40;;;;;;;4.87;1.97;;;7.30;90.30;;;;;;5000316;28;20026;-79
2023/03/29 01:03:13;;;;;;;5.40;1.77;;;7.30;90.30;;;;;;5016047;28;20496;-79
2023/03/29 01:05:52;;;;;;;5.63;1.83;;;7.30;90.30;;;;;;5016397;28;20437;-80
2023/03/29 01:08:28;;;;;;;5.23;2.03;;;7.30;90.40;;;;;;5012689;28;20030;-79
2023/03/29 01:11:08;;;;;;;4.50;1.83;;;7.30;90.40;;;;;;5014194;28;20034;-79
2023/03/29 01:13:43;;;;;;;4.63;1.70;;;7.30;90.40;;;;;;5012931;28;20544;-79
2023/03/29 01:16:11;;;;;;;3.97;1.80;;;7.30;90.40;;;;;;5024497;28;20030;-79
2023/03/29 01:18:37;;;;;;;5.17;1.60;;;7.30;90.40;;;;;;4999632;28;20029;-79
2023/03/29 01:21:19;;;;;;;4.47;2.07;;;7.40;90.50;;;;;;5016193;28;20550;-79
2023/03/29 01:24:14;;;;;;;4.63;2.20;;;7.30;90.40;;;;;;5016028;28;20112;-79
2023/03/29 01:26:58;;;;;;;7.00;2.10;;;7.30;90.40;;;;;;5015517;28;20112;-79
2023/03/29 01:29:24;;;;;;;5.60;1.85;;;7.40;90.50;;;;;;5015631;28;20029;-79
2023/03/29 01:31:55;;;;;;;6.13;2.23;;;7.20;90.40;;;;;;5033548;28;20039;-78
2023/03/29 01:34:43;;;;;;;6.63;2.27;;;7.30;90.50;;;;;;5015906;28;20032;-79
2023/03/29 01:37:27;;;;;;;6.40;2.20;;;7.40;90.50;;;;;;5015628;28;20025;-78
2023/03/29 01:39:52;;;;;;;5.78;2.53;;;7.40;90.50;;;;;;5015732;28;20037;-79
2023/03/29 01:42:48;;;;;;;7.37;2.20;;;7.40;90.50;;;;;;4999186;28;20025;-80
2023/03/29 01:45:16;;;;;;;6.53;2.20;;;7.40;90.50;;;;;;5006592;28;20045;-80
2023/03/29 01:48:12;;;;;;;11.07;2.20;;;7.40;90.50;;;;;;4995944;28;20030;-79
2023/03/29 01:50:59;;;;;;;4.73;2.37;;;7.40;90.50;;;;;;5012278;28;20026;-79
2023/03/29 01:53:31;;;;;;;4.27;1.63;;;7.40;90.50;;;;;;5012202;28;20107;-79
2023/03/29 01:56:11;;;;;;;5.17;2.03;;;7.40;90.50;;;;;;4995366;28;20026;-80
2023/03/29 01:58:46;;;;;;;4.60;1.90;;;7.50;90.80;;;;;;5012279;28;20025;-79
2023/03/29 02:01:17;;;;;;;5.50;2.00;;;7.40;90.50;;;;;;5012482;28;20034;-79
2023/03/29 02:03:48;;;;;;;6.80;2.10;;;7.40;90.40;;;;;;5012063;28;20029;-79
2023/03/29 02:06:20;;;;;;;8.73;2.50;;;7.50;90.90;;;;;;5012097;28;20026;-78
2023/03/29 02:08:46;;;;;;;3.80;1.60;;;7.50;90.50;;;;;;4992548;28;20018;-79
2023/03/29 02:11:12;;;;;;;7.03;2.27;;;7.40;90.50;;;;;;4992418;28;20475;-79
2023/03/29 02:13:38;;;;;;;6.83;2.57;;;7.40;90.60;;;;;;4976204;28;20031;-79
2023/03/29 02:16:11;;;;;;;6.23;2.20;;;7.50;90.60;;;;;;4976458;28;20031;-79
2023/03/29 02:18:42;;;;;;;7.20;2.20;;;7.50;90.60;;;;;;4976184;28;20026;-79
2023/03/29 02:21:13;;;;;;;6.00;2.00;;;7.50;90.70;;;;;;4992738;28;20395;-79
2023/03/29 02:23:44;;;;;;;6.53;2.00;;;7.50;90.70;;;;;;4992230;28;20022;-79
2023/03/29 02:26:13;;;;;;;5.30;2.30;;;7.50;90.70;;;;;;4976084;28;20026;-79
2023/03/29 02:28:40;;;;;;;5.80;2.13;;;7.50;90.80;;;;;;4992333;28;20029;-78
2023/03/29 02:31:32;;;;;;;8.23;2.53;;;7.50;90.80;;;;;;4975963;28;20030;-79
2023/03/29 02:34:36;;;;;;;8.33;2.40;;;7.50;91.00;;;;;;4975784;28;20019;-79
2023/03/29 02:37:07;;;;;;;11.33;2.80;;;7.50;91.10;;;;;;4977752;28;20022;-79
2023/03/29 02:39:34;;;;;;;6.37;2.77;;;7.50;91.30;;;;;;5011579;28;20064;-79
2023/03/29 02:42:02;;;;;;;8.30;2.77;;;7.50;91.40;;;;;;5011790;28;20033;-78
2023/03/29 02:44:30;;;;;;;7.47;2.50;;;7.50;91.50;;;;;;5014371;28;20038;-79
2023/03/29 02:47:01;;;;;;;5.30;2.17;;;7.50;91.80;;;;;;5031388;28;20474;-78
2023/03/29 02:49:27;;;;;;;7.50;2.43;;;7.40;91.80;;;;;;5031667;28;20030;-83
2023/03/29 02:51:56;;;;;;;5.70;2.30;;;7.50;92.10;;;;;;5032686;28;20231;-82
2023/03/29 02:54:28;;;;;;;9.57;2.50;;;7.40;92.10;;;;;;5031033;28;20485;-83
2023/03/29 02:56:56;;;;;;;4.37;2.07;;;7.40;92.30;;;;;;5033763;28;20037;-83
2023/03/29 02:59:23;;;;;;;5.47;2.10;;;7.40;92.50;;;;;;5035249;28;20021;-82
2023/03/29 03:01:49;;;;;;;6.53;2.27;;;7.40;92.70;;;;;;5035222;28;20018;-83
2023/03/29 03:04:17;;;;;;;4.90;2.50;;;7.40;92.80;;;;;;5035166;28;20116;-82
2023/03/29 03:06:43;;;;;;;8.00;2.40;;;7.40;92.80;;;;;;5019252;28;20092;-83
2023/03/29 03:09:09;;;;;;;6.17;2.70;;;7.40;92.90;;;;;;5018816;28;20064;-81
2023/03/29 03:11:35;;;;;;;5.77;2.00;;;7.40;93.10;;;;;;5034766;28;20086;-82
2023/03/29 03:14:00;;;;;;;5.83;2.50;;;7.40;93.20;;;;;;5018593;28;20424;-82
2023/03/29 03:16:26;;;;;;;8.27;2.57;;;7.40;93.20;;;;;;5002252;28;20032;-82
2023/03/29 03:18:53;;;;;;;5.33;2.27;;;7.40;93.30;;;;;;5018455;28;20076;-83
2023/03/29 03:21:19;;;;;;;9.17;2.30;;;7.40;93.40;;;;;;5036791;28;20024;-81
2023/03/29 03:23:48;;;;;;;6.70;2.50;;;7.40;93.70;;;;;;4988048;28;20017;-83
2023/03/29 03:26:16;;;;;;;4.93;2.37;;;7.40;93.70;;;;;;5037063;28;20025;-83
2023/03/29 03:28:42;;;;;;;8.47;2.77;;;7.40;93.70;;;;;;5036758;28;20025;-83
2023/03/29 03:31:08;;;;;;;7.60;2.70;;;7.40;93.70;;;;;;4988236;28;20067;-83
2023/03/29 03:33:33;;;;;;;8.03;2.43;;;7.40;93.80;;;;;;5016784;28;20553;-83
2023/03/29 03:36:04;;;;;;;6.80;2.67;;;7.50;93.90;;;;;;5016649;28;20033;-83
2023/03/29 03:38:31;;;;;;;6.23;2.47;;;7.50;94.00;;;;;;5010741;28;20030;-83
2023/03/29 03:40:58;;;;;;;9.97;2.63;;;7.50;94.10;;;;;;5000734;28;20049;-83
2023/03/29 03:43:24;;;;;;;8.17;2.30;;;7.50;94.10;;;;;;5001081;28;20084;-83
2023/03/29 03:45:50;;;;;;;10.93;2.70;;;7.60;94.20;;;;;;5017938;28;20062;-83
2023/03/29 03:48:17;;;;;;;7.00;2.30;;;7.60;94.30;;;;;;5017796;28;20382;-83
2023/03/29 03:50:54;;;;;;;7.57;2.47;;;7.60;94.30;;;;;;5017952;28;20083;-83
2023/03/29 03:53:20;;;;;;;7.70;2.50;;;7.60;94.40;;;;;;5017886;28;20035;-83
2023/03/29 03:55:51;;;;;;;5.13;2.30;;;7.60;94.40;;;;;;5017307;28;20529;-83
2023/03/29 03:58:17;;;;;;;7.13;2.63;;;7.60;94.50;;;;;;5017619;28;20021;-82
2023/03/29 04:00:44;;;;;;;6.90;2.20;;;7.60;94.50;;;;;;5001373;28;20021;-83
2023/03/29 04:03:09;;;;;;;5.27;2.40;;;7.70;94.70;;;;;;5017560;28;20037;-83
2023/03/29 04:05:39;;;;;;;6.10;2.60;;;7.70;94.80;;;;;;5011527;28;20470;-84
2023/03/29 04:08:08;;;;;;;8.47;2.63;;;7.70;94.80;;;;;;5023914;28;20473;-83
2023/03/29 04:10:34;;;;;;;7.13;2.70;;;7.70;94.80;;;;;;4999412;28;20168;-83
2023/03/29 04:13:04;;;;;;;8.67;2.57;;;7.80;94.90;;;;;;5024761;28;20105;-84
2023/03/29 04:15:31;;;;;;;7.70;2.60;;;7.70;94.90;;;;;;5019838;28;20021;-83
2023/03/29 04:17:58;;;;;;;9.73;2.87;;;7.70;95.00;;;;;;5016629;28;20018;-83
2023/03/29 04:20:25;;;;;;;5.77;2.33;;;7.70;95.00;;;;;;5016189;28;20036;-83
2023/03/29 04:22:51;;;;;;;6.20;2.60;;;7.70;95.20;;;;;;5012620;28;20033;-84
2023/03/29 04:25:17;;;;;;;5.83;2.47;;;7.70;95.20;;;;;;5016866;28;20032;-83
2023/03/29 04:27:44;;;;;;;7.23;2.40;;;7.70;95.20;;;;;;5032638;28;20033;-83
2023/03/29 04:30:11;;;;;;;8.27;2.53;;;7.70;95.20;;;;;;5017147;28;20036;-83
2023/03/29 04:32:37;;;;;;;5.47;2.97;;;7.70;95.10;;;;;;5000615;28;20040;-84
2023/03/29 04:35:05;;;;;;;5.87;2.13;;;7.80;95.20;;;;;;5000637;28;20033;-83
2023/03/29 04:37:31;;;;;;;6.80;2.83;;;7.80;95.20;;;;;;5016753;28;20025;-83
2023/03/29 04:40:03;;;;;;;7.33;2.30;;;7.80;95.20;;;;;;5016136;28;20374;-83
2023/03/29 04:42:29;;;;;;;6.57;2.80;;;7.80;95.20;;;;;;5017684;28;20021;-83
2023/03/29 04:44:56;;;;;;;6.80;2.80;;;7.80;95.20;;;;;;5016615;28;20104;-83
2023/03/29 04:47:21;;;;;;;5.53;2.80;;;7.80;95.20;;;;;;5000546;28;20036;-83
2023/03/29 04:49:47;;;;;;;6.37;2.73;;;7.90;95.20;;;;;;5016792;28;20425;-82
2023/03/29 04:52:13;;;;;;;7.23;2.63;;;7.90;95.20;;;;;;5000165;28;20088;-83
2023/03/29 04:54:39;;;;;;;6.63;2.53;;;7.90;95.30;;;;;;5000165;28;20025;-82
2023/03/29 04:57:06;;;;;;;7.23;2.70;;;7.90;95.30;;;;;;5016334;28;20379;-82
2023/03/29 04:59:31;;;;;;;5.23;2.47;;;7.90;95.20;;;;;;5033956;28;20474;-83
2023/03/29 05:01:58;;;;;;;5.80;2.63;;;7.90;95.20;;;;;;5000119;28;20071;-83
2023/03/29 05:04:23;;;;;;;5.40;2.60;;;8.00;95.30;;;;;;5000172;28;20021;-83
2023/03/29 05:06:49;;;;;;;8.27;2.43;;;8.00;95.20;;;;;;5016257;28;20513;-83
2023/03/29 05:09:16;;;;;;;8.23;2.20;;;8.00;95.20;;;;;;5016145;28;20068;-83
2023/03/29 05:11:42;;;;;;;6.97;2.80;;;8.00;95.20;;;;;;5016347;28;20079;-83
2023/03/29 05:14:08;;;;;;;8.07;2.33;;;8.10;95.20;;;;;;4999397;28;20116;-83
2023/03/29 05:16:34;;;;;;;6.10;2.40;;;8.00;95.10;;;;;;5016012;28;20025;-83
2023/03/29 05:19:00;;;;;;;5.83;2.00;;;8.10;95.10;;;;;;5033135;28;20421;-83
2023/03/29 05:21:27;;;;;;;5.70;2.17;;;8.10;94.90;;;;;;5016476;28;20022;-83
2023/03/29 05:23:53;;;;;;;5.70;2.60;;;8.10;94.90;;;;;;5015794;28;20041;-83
2023/03/29 05:26:21;;;;;;;6.90;2.43;;;8.10;94.90;;;;;;5000060;28;20041;-83
2023/03/29 05:28:47;;;;;;;5.30;2.70;;;8.10;94.80;;;;;;5016314;28;20033;-83
2023/03/29 05:31:13;;;;;;;8.37;2.23;;;8.10;94.80;;;;;;5015846;28;20057;-83
2023/03/29 05:33:39;;;;;;;7.87;2.10;;;8.10;94.70;;;;;;5015629;28;20048;-83
2023/03/29 05:36:15;;;;;;;6.03;1.93;;;8.20;94.70;;;;;;5015722;28;20029;-83
2023/03/29 05:38:43;;;;;;;6.47;1.83;;;8.20;94.70;;;;;;5032297;28;20025;-83
2023/03/29 05:41:10;;;;;;;5.13;1.63;;;8.20;94.60;;;;;;5016207;28;20045;-83
2023/03/29 05:43:35;;;;;;;5.90;1.90;;;8.40;94.60;;;;;;4999801;28;20092;-83
2023/03/29 05:46:01;;;;;;;8.00;2.60;;;8.30;94.60;;;;;;5015596;28;20391;-83
2023/03/29 05:48:27;;;;;;;6.70;2.43;;;8.30;94.60;;;;;;5016022;28;20025;-84
2023/03/29 05:50:55;;;;;;;4.73;1.60;;;8.30;94.80;;;;;;5015941;28;20486;-86
2023/03/29 05:53:23;;;;;;;7.67;2.07;;;8.40;94.50;;;;;;5015466;28;20412;-84
2023/03/29 05:55:51;;;;;;;6.17;2.13;;;8.40;94.50;;;;;;5015317;28;20021;-83
2023/03/29 05:58:17;;;;;;;8.57;2.17;;;8.40;94.40;;;;;;5015961;28;20180;-84
2023/03/29 06:00:43;;;;;;;6.20;2.10;;;8.50;94.30;;;;;;5033425;28;20474;-86
2023/03/29 06:03:24;;;;;;;5.43;2.00;;;8.50;94.30;;;;;;4999368;28;20032;-84
2023/03/29 06:06:01;;;;;;;6.70;2.27;;;8.50;94.20;;;;;;5015512;28;20164;-84
2023/03/29 06:08:27;;;;;;;4.60;1.93;;;8.50;94.10;;;;;;5014823;28;20029;-84
2023/03/29 06:10:59;;;;;;;4.60;1.87;;;8.50;94.00;;;;;;5009710;28;20100;-85
2023/03/29 06:13:26;;;;;;;7.30;2.37;;;8.60;94.00;;;;;;5007252;28;20028;-84
2023/03/29 06:15:52;;;;;;;4.10;1.97;;;8.70;93.90;;;;;;5000779;28;20029;-85
2023/03/29 06:18:19;;;;;;;6.67;2.20;;;8.60;93.80;;;;;;4999155;28;20113;-85
2023/03/29 06:20:48;;;;;;;7.90;2.70;;;8.60;93.70;;;;;;5015792;28;20025;-84
2023/03/29 06:23:14;;;;;;;4.87;2.07;;;8.70;93.70;;;;;;5033716;28;20017;-84
2023/03/29 06:25:40;;;;;;;4.23;1.80;;;8.70;93.60;;;;;;5006578;28;20024;-84
2023/03/29 06:28:06;;;;;;;4.33;2.20;;;8.70;93.60;;;;;;4987690;28;20035;-84
2023/03/29 06:30:32;;;;;;;5.23;2.17;;;8.70;93.50;;;;;;4982196;28;20065;-84
2023/03/29 06:32:59;;;;;;;8.07;2.50;;;8.80;93.50;;;;;;5005330;28;20022;-85
2023/03/29 06:35:27;;;;;;;4.33;2.07;;;8.80;93.40;;;;;;4995851;28;20038;-85
2023/03/29 06:37:53;;;;;;;5.03;2.37;;;8.80;93.30;;;;;;5010437;28;20032;-85
2023/03/29 06:40:23;;;;;;;6.77;2.47;;;8.90;93.10;;;;;;5007187;28;20017;-84
2023/03/29 06:42:56;;;;;;;7.17;2.40;;;8.90;93.00;;;;;;4994444;28;20022;-84
2023/03/29 06:45:26;;;;;;;9.17;2.70;;;8.90;92.90;;;;;;4972667;28;20058;-85
2023/03/29 06:47:52;;;;;;;7.73;2.90;;;8.90;93.00;;;;;;5018833;28;20488;-85
2023/03/29 06:50:17;;;;;;;8.43;2.90;;;8.90;93.30;;;;;;5014799;28;20159;-85
2023/03/29 06:52:45;;;;;;;6.50;2.50;;;8.90;93.70;;;;;;4990356;28;20037;-83
2023/03/29 06:55:11;;;;;;;6.37;3.23;;;8.80;93.80;;;;;;5013663;28;20029;-84
2023/03/29 06:57:38;;;;;;;8.17;3.50;;;8.80;94.00;;;;;;5014868;28;20382;-85
2023/03/29 07:00:13;;;;;;;8.03;2.57;;;8.80;94.30;;;;;;5034400;28;20080;-86
2023/03/29 07:02:40;;;;;;;7.87;2.77;;;8.80;94.20;;;;;;5036840;28;20025;-85
2023/03/29 07:05:10;;;;;;;6.57;2.83;;;8.80;94.40;;;;;;5022475;28;20025;-85
2023/03/29 07:07:55;;;;;;;7.70;2.77;;;8.80;94.30;;;;;;5019511;28;20485;-84
2023/03/29 07:10:24;;;;;;;8.20;2.87;;;8.90;94.50;;;;;;5033893;28;20072;-84
2023/03/29 07:12:51;;;;;;;6.87;2.83;;;8.80;94.50;;;;;;5006661;28;20553;-84
2023/03/29 07:15:19;;;;;;;6.97;2.63;;;8.90;94.50;;;;;;5022035;28;20133;-83
2023/03/29 07:17:45;;;;;;;8.37;2.63;;;8.90;94.60;;;;;;5011605;28;20064;-84
2023/03/29 07:20:14;;;;;;;6.10;2.73;;;9.00;94.50;;;;;;5000546;28;20026;-84
2023/03/29 07:22:44;;;;;;;7.57;2.23;;;9.00;94.60;;;;;;5018000;28;20024;-84
2023/03/29 07:25:11;;;;;;;8.80;3.00;;;9.00;94.50;;;;;;5027574;28;20026;-83
2023/03/29 07:27:38;;;;;;;4.07;2.33;;;9.00;94.60;;;;;;5004109;28;20391;-84
2023/03/29 07:30:09;;;;;;;7.53;3.50;;;9.10;94.50;;;;;;5009923;28;20041;-85
2023/03/29 07:32:36;;;;;;;7.73;2.53;;;9.10;94.50;;;;;;5029726;28;20033;-85
2023/03/29 07:35:04;;;;;;;8.77;2.93;;;9.20;94.40;;;;;;5014914;28;20021;-85
2023/03/29 07:37:31;;;;;;;9.13;3.17;;;9.20;94.60;;;;;;5030735;28;20022;-85
2023/03/29 07:39:58;;;;;;;7.20;2.70;;;9.30;94.30;;;;;;5014743;28;20026;-85
2023/03/29 07:42:24;;;;;;;7.27;3.10;;;9.40;94.30;;;;;;5014342;28;20037;-85
2023/03/29 07:44:50;;;;;;;5.83;2.90;;;9.40;94.20;;;;;;4994750;28;20437;-85
2023/03/29 07:47:18;;;;;;;6.93;2.57;;;9.50;94.10;;;;;;5021039;28;20033;-85
2023/03/29 07:49:44;;;;;;;6.93;2.47;;;9.60;94.00;;;;;;4984672;28;20433;-85
2023/03/29 07:52:10;;;;;;;7.50;2.87;;;9.70;94.00;;;;;;5000992;28;20029;-85
2023/03/29 07:54:37;;;;;;;5.70;2.50;;;9.70;93.90;;;;;;5018148;28;20032;-84
2023/03/29 07:57:03;;;;;;;8.87;3.50;;;9.80;93.70;;;;;;5018363;28;20092;-85
2023/03/29 07:59:29;;;;;;;7.73;3.20;;;9.80;93.50;;;;;;5022599;28;20416;-84
2023/03/29 08:01:55;;;;;;;9.03;3.87;;;9.90;93.20;;;;;;5033125;28;20021;-85
2023/03/29 08:04:21;;;;;;;8.17;3.50;;;9.90;93.00;;;;;;5016735;28;20381;-84
2023/03/29 08:06:47;;;;;;;9.70;3.70;;;9.90;92.80;;;;;;5000876;28;20029;-84
2023/03/29 08:09:13;;;;;;;7.90;2.87;;;9.90;92.80;;;;;;5033159;28;20041;-84
2023/03/29 08:11:39;;;;;;;9.40;3.87;;;10.00;92.80;;;;;;4995199;28;20126;-84
2023/03/29 08:14:06;;;;;;;9.50;4.23;;;10.00;92.70;;;;;;4998124;28;20489;-84
2023/03/29 08:16:32;;;;;;;6.33;3.53;;;10.10;92.60;;;;;;5000846;28;20040;-85
2023/03/29 08:18:58;;;;;;;9.10;3.60;;;10.10;92.50;;;;;;5016728;28;20013;-85
2023/03/29 08:21:24;;;;;;;8.47;3.57;;;10.20;92.40;;;;;;5034547;28;20021;-85
2023/03/29 08:23:50;;;;;;;7.80;3.97;;;10.20;92.40;;;;;;5000989;28;20482;-84
2023/03/29 08:26:16;;;;;;;8.17;3.93;;;10.30;92.30;;;;;;5002051;28;20026;-85
2023/03/29 08:28:43;;;;;;;8.57;3.87;;;10.30;92.20;;;;;;5018284;28;20033;-85
2023/03/29 08:31:09;;;;;;;8.03;3.87;;;10.30;92.20;;;;;;5005610;28;20080;-85
2023/03/29 08:33:35;;;;;;;7.03;3.67;;;10.40;92.20;;;;;;5010652;28;20030;-85
2023/03/29 08:36:01;;;;;;;9.10;4.03;;;10.50;92.30;;;;;;4982992;28;20030;-84
2023/03/29 08:38:27;;;;;;;8.63;3.80;;;10.60;92.30;;;;;;5028015;28;20025;-86
2023/03/29 08:40:53;;;;;;;13.00;4.57;;;10.70;92.20;;;;;;5012683;28;20037;-87
2023/03/29 08:43:47;;;;;;;8.17;3.90;;;10.80;92.20;;;;;;4988485;28;20137;-80
2023/03/29 08:46:34;;;;;;;10.35;4.20;;;10.90;92.30;;;;;;4979597;28;1213896;-87
2023/03/29 08:49:02;;;;;;;6.43;3.65;;;11.10;92.20;;;;;;5032064;28;20069;-87
2023/03/29 08:51:36;;;;;;;9.00;3.88;;;11.20;92.30;;;;;;5017930;28;20413;-81
2023/03/29 08:54:11;;;;;;;9.52;3.72;;;11.30;92.10;;;;;;5032417;28;20060;-81
2023/03/29 08:56:39;;;;;;;10.25;4.07;;;11.50;92.20;;;;;;5016004;28;20318;-81
2023/03/29 08:59:13;;;;;;;8.00;4.05;;;11.60;91.90;;;;;;4999179;28;20466;-82
2023/03/29 09:01:39;;;;;;;10.07;5.00;;;11.70;91.50;;;;;;5016441;28;20032;-82
2023/03/29 09:04:15;;;;;;;9.38;4.45;;;11.80;91.50;;;;;;4999015;28;20413;-82
2023/03/29 09:06:41;;;;;;;13.25;5.25;;;11.90;91.30;;;;;;5016026;28;20029;-82
2023/03/29 09:09:19;;;;;;;11.68;5.38;;;12.00;91.10;;;;;;4983922;28;20029;-82
2023/03/29 09:11:58;;;;;;;14.05;6.30;;;12.00;90.90;;;;;;5016203;28;20112;-81
2023/03/29 09:14:48;;;;;;;9.82;5.07;;;12.00;90.90;;;;;;5016001;28;20125;-82
2023/03/29 09:17:50;;;;;;;10.00;4.55;;;12.00;91.10;;;;;;5015751;28;20071;-80
2023/03/29 09:20:26;;;;;;;9.85;5.72;;;12.00;91.20;;;;;;5033754;28;20030;-80
2023/03/29 09:23:09;;;;;;;13.02;5.35;;;12.00;91.20;;;;;;5015552;28;20109;-79
2023/03/29 09:25:45;;;;;;;8.43;4.33;;;12.00;91.40;;;;;;4996315;28;20116;-79
2023/03/29 09:28:31;;;;;;;13.10;4.88;;;12.10;91.60;;;;;;5012467;28;20534;-79
2023/03/29 09:31:10;;;;;;;11.77;5.18;;;12.30;91.70;;;;;;5013826;28;20030;-80
2023/03/29 09:33:55;;;;;;;12.20;5.82;;;12.30;91.50;;;;;;5013821;28;20030;-79
2023/03/29 09:36:45;;;;;;;15.73;6.63;;;12.30;91.50;;;;;;4996040;28;20030;-80
2023/03/29 09:39:15;;;;;;;12.32;6.03;;;12.30;91.80;;;;;;4996040;28;20036;-80
2023/03/29 09:41:48;;;;;;;10.73;6.13;;;12.30;91.70;;;;;;5013975;28;20035;-81
2023/03/29 09:44:17;;;;;;;17.75;7.88;;;12.40;92.10;;;;;;4996079;28;20395;-82
2023/03/29 09:46:50;;;;;;;12.90;6.10;;;12.40;91.80;;;;;;4996279;28;20128;-81
2023/03/29 09:49:38;;;;;;;12.10;5.88;;;12.40;91.90;;;;;;4995961;28;20021;-82
2023/03/29 09:52:11;;;;;;;12.93;6.85;;;12.50;91.90;;;;;;5006564;28;20034;-82
2023/03/29 09:54:37;;;;;;;14.40;6.45;;;12.60;91.90;;;;;;5014010;28;20041;-81
2023/03/29 09:57:03;;;;;;;14.52;5.93;;;12.70;91.90;;;;;;4979847;28;20034;-82
2023/03/29 09:59:29;;;;;;;11.63;6.13;;;12.80;91.90;;;;;;4979603;28;20025;-81
2023/03/29 10:02:06;;;;;;;12.73;6.05;;;12.90;91.70;;;;;;4995838;28;20033;-81
2023/03/29 10:04:32;;;;;;;12.32;5.57;;;12.90;91.60;;;;;;4995619;28;20485;-81
2023/03/29 10:06:58;;;;;;;10.80;5.70;;;12.90;91.50;;;;;;4994992;28;20030;-81
2023/03/29 10:09:27;;;;;;;11.57;6.03;;;12.90;91.40;;;;;;5013091;28;20034;-84
2023/03/29 10:11:56;;;;;;;12.13;6.28;;;12.90;91.50;;;;;;5003807;28;20104;-81
2023/03/29 10:14:34;;;;;;;14.13;6.45;;;13.00;91.50;;;;;;5003029;28;20022;-81
2023/03/29 10:17:02;;;;;;;9.45;5.15;;;13.10;91.40;;;;;;5005275;28;20032;-81
2023/03/29 10:19:33;;;;;;;10.70;5.85;;;13.20;91.30;;;;;;5015000;28;20409;-81
2023/03/29 10:22:02;;;;;;;8.88;5.05;;;13.30;91.50;;;;;;5012381;28;20029;-80
2023/03/29 10:24:29;;;;;;;10.63;5.78;;;13.40;91.40;;;;;;5029641;28;20018;-81
2023/03/29 10:26:58;;;;;;;9.55;4.88;;;13.50;91.10;;;;;;4984946;28;20342;-82
2023/03/29 10:29:25;;;;;;;9.07;5.22;;;13.50;90.80;;;;;;5011044;28;20053;-82
2023/03/29 10:31:52;;;;;;;14.25;6.18;;;13.50;90.80;;;;;;5022581;28;20030;-81
2023/03/29 10:34:19;;;;;;;12.23;5.65;;;13.50;90.60;;;;;;4994495;28;20033;-82
2023/03/29 10:36:58;;;;;;;9.55;5.65;;;13.50;90.70;;;;;;4992538;28;20092;-81
2023/03/29 10:39:32;;;;;;;10.77;5.80;;;13.50;90.60;;;;;;5005848;28;20025;-82
2023/03/29 10:41:59;;;;;;;12.15;6.38;;;13.50;90.50;;;;;;5000564;28;20435;-82
2023/03/29 10:44:31;;;;;;;11.70;5.93;;;13.40;90.40;;;;;;5008823;28;20100;-82
2023/03/29 10:47:07;;;;;;;10.73;6.28;;;13.40;90.50;;;;;;5004703;28;20033;-81
2023/03/29 10:49:45;;;;;;;13.02;6.60;;;13.30;90.50;;;;;;5007838;28;20066;-82
2023/03/29 10:52:12;;;;;;;12.15;6.05;;;13.20;90.60;;;;;;5027144;28;20047;-82
2023/03/29 10:54:38;;;;;;;11.75;5.93;;;13.20;90.70;;;;;;5014896;28;20026;-82
2023/03/29 10:57:09;;;;;;;9.15;5.40;;;13.20;91.00;;;;;;5015650;28;20033;-81
2023/03/29 10:59:47;;;;;;;11.93;6.63;;;13.20;91.20;;;;;;5014930;28;20398;-82
2023/03/29 11:02:13;;;;;;;10.65;5.70;;;13.30;91.50;;;;;;5014961;28;20109;-81
2023/03/29 11:04:58;;;;;;;11.02;5.65;;;13.30;91.60;;;;;;5014786;28;20532;-82
2023/03/29 11:07:39;;;;;;;11.55;5.93;;;13.40;91.80;;;;;;5014769;28;20029;-83
2023/03/29 11:10:42;;;;;;;8.90;5.07;;;13.50;91.80;;;;;;5014944;28;20120;-87
2023/03/29 11:13:36;;;;;;;10.65;5.80;;;13.60;91.70;;;;;;5032627;28;20053;-83
2023/03/29 11:16:26;;;;;;;9.20;4.68;;;13.50;91.70;;;;;;5014381;28;20068;-80
2023/03/29 11:19:26;;;;;;;9.65;5.93;;;13.50;91.80;;;;;;5035796;28;20029;-83
2023/03/29 11:22:07;;;;;;;13.27;5.97;;;13.50;91.70;;;;;;5035999;28;20028;-83
2023/03/29 11:24:47;;;;;;;8.93;5.22;;;13.60;91.80;;;;;;5035889;28;20041;-80
2023/03/29 11:27:38;;;;;;;12.38;5.88;;;13.60;91.90;;;;;;5017995;28;20029;-80
2023/03/29 11:30:23;;;;;;;12.65;5.28;;;13.70;91.70;;;;;;5016214;28;20029;-84
2023/03/29 11:33:02;;;;;;;;;;;13.80;91.80;;;;;;5018931;28;20029;-79
2023/03/29 11:35:55;;;;;;;12.25;5.38;;;13.80;91.80;;;;;;5030653;28;19996;-80
2023/03/29 11:38:26;;;;;;;14.52;5.88;;;13.80;91.60;;;;;;5003586;28;20464;-79
2023/03/29 11:40:52;;;;;;;11.50;5.70;;;13.70;91.60;;;;;;5011197;28;20033;-79
2023/03/29 11:43:22;;;;;;;10.20;5.15;;;13.70;91.70;;;;;;5007628;28;20091;-82
2023/03/29 11:46:20;;;;;;;11.02;5.85;;;13.70;91.80;;;;;;5007836;28;20077;-82
2023/03/29 11:49:03;;;;;;;8.82;4.97;;;13.80;91.70;;;;;;5008137;28;20500;-82
2023/03/29 11:51:36;;;;;;;10.90;4.83;;;13.90;91.60;;;;;;5029833;28;20025;-82
2023/03/29 11:54:12;;;;;;;13.02;5.70;;;13.90;91.60;;;;;;5015142;28;20034;-82
2023/03/29 11:56:55;;;;;;;11.63;5.75;;;14.00;91.50;;;;;;5017566;28;20128;-81
2023/03/29 11:59:31;;;;;;;9.45;5.13;;;13.90;91.50;;;;;;5017678;28;20021;-82
2023/03/29 12:02:15;;;;;;;8.38;4.97;;;13.90;91.50;;;;;;5017383;28;20033;-83
2023/03/29 12:04:47;;;;;;;10.07;5.38;;;14.00;91.50;;;;;;5017386;28;20466;-82
2023/03/29 12:07:31;;;;;;;9.15;5.03;;;14.10;91.50;;;;;;5017437;28;20036;-82
2023/03/29 12:10:13;;;;;;;11.30;5.00;;;14.10;91.40;;;;;;5016160;28;20029;-82
2023/03/29 12:13:10;;;;;;;9.25;4.93;;;14.20;91.30;;;;;;5008218;28;20103;-81
2023/03/29 12:15:42;;;;;;;10.25;5.32;;;14.10;91.30;;;;;;5029063;28;20377;-81
2023/03/29 12:18:24;;;;;;;10.80;6.05;;;14.00;91.30;;;;;;5008730;28;20116;-82
2023/03/29 12:21:01;;;;;;;10.35;5.57;;;14.00;91.30;;;;;;5022263;28;20071;-82
2023/03/29 12:23:30;;;;;;;7.95;4.18;;;13.90;91.40;;;;;;5002725;28;20018;-81
2023/03/29 12:26:19;;;;;;;9.02;5.10;;;14.00;91.60;;;;;;4994494;28;20029;-82
2023/03/29 12:29:16;;;;;;;10.85;5.13;;;14.00;91.60;;;;;;5012626;28;20386;-83
2023/03/29 12:32:02;;;;;;;7.80;3.78;;;14.00;91.60;;;;;;4979116;28;20512;-83
2023/03/29 12:34:33;;;;;;;7.57;3.97;;;14.00;91.70;;;;;;5014924;28;20529;-82
2023/03/29 12:37:31;;;;;;;11.50;4.80;;;14.00;91.70;;;;;;5014994;28;20025;-82
2023/03/29 12:40:25;;;;;;;11.18;5.38;;;14.10;91.80;;;;;;5041721;28;20436;-83
2023/03/29 12:42:58;;;;;;;10.40;4.70;;;14.00;91.80;;;;;;5033378;28;20046;-82
2023/03/29 12:45:48;;;;;;;11.43;5.68;;;13.90;91.90;;;;;;5040909;28;20077;-83
2023/03/29 12:48:19;;;;;;;9.32;5.65;;;13.90;92.00;;;;;;5024908;28;20081;-82
2023/03/29 12:50:50;;;;;;;10.07;5.60;;;13.80;92.20;;;;;;5043693;28;20108;-83
2023/03/29 12:53:39;;;;;;;10.95;5.63;;;13.70;92.30;;;;;;5028334;28;20377;-83
2023/03/29 12:56:07;;;;;;;9.35;5.07;;;13.70;92.50;;;;;;5027811;28;20104;-84
2023/03/29 12:58:39;;;;;;;8.07;4.45;;;13.70;92.60;;;;;;5016581;28;20434;-83
2023/03/29 13:01:22;;;;;;;9.00;4.82;;;13.70;92.60;;;;;;5018000;28;20033;-83
2023/03/29 13:03:56;;;;;;;8.85;5.63;;;13.60;92.70;;;;;;5023129;28;20025;-83
2023/03/29 13:06:49;;;;;;;8.82;5.55;;;13.60;92.80;;;;;;5027488;28;20381;-84
2023/03/29 13:09:28;;;;;;;9.68;5.78;;;13.70;92.90;;;;;;5025323;28;20033;-84
2023/03/29 13:12:15;;;;;;;9.77;5.65;;;13.70;92.90;;;;;;5030989;28;20083;-83
2023/03/29 13:14:49;;;;;;;8.60;5.22;;;13.80;93.00;;;;;;4996220;28;20171;-84